sensor_id;sensor_type;location;lat;lon;timestamp;temperature;humidity
2024;DHT22;1016;48.770;9.154;2023-08-08T00:00:48;17.70;99.90
2024;DHT22;1016;48.770;9.154;2023-08-08T00:03:14;17.70;99.90
2024;DHT22;1016;48.770;9.154;2023-08-08T00:05:40;17.70;99.90
2024;DHT22;1016;48.770;9.154;2023-08-08T00:08:06;17.70;99.90
2024;DHT22;1016;48.770;9.154;2023-08-08T00:10:32;17.70;99.90
2024;DHT22;1016;48.770;9.154;2023-08-08T00:12:58;17.70;99.90
2024;DHT22;1016;48.770;9.154;2023-08-08T00:15:23;17.90;99.90
2024;DHT22;1016;48.770;9.154;2023-08-08T00:17:49;17.70;99.90
2024;DHT22;1016;48.770;9.154;2023-08-08T00:20:15;17.70;99.90
2024;DHT22;1016;48.770;9.154;2023-08-08T00:22:40;17.70;99.90
2024;DHT22;1016;48.770;9.154;2023-08-08T00:25:06;17.70;99.90
2024;DHT22;1016;48.770;9.154;2023-08-08T00:27:32;17.80;99.90
2024;DHT22;1016;48.770;9.154;2023-08-08T00:29:58;17.70;99.90
2024;DHT22;1016;48.770;9.154;2023-08-08T00:32:23;17.70;99.90
2024;DHT22;1016;48.770;9.154;2023-08-08T00:34:49;17.80;99.90
2024;DHT22;1016;48.770;9.154;2023-08-08T00:37:14;17.70;99.90
2024;DHT22;1016;48.770;9.154;2023-08-08T00:39:40;17.70;99.90
2024;DHT22;1016;48.770;9.154;2023-08-08T00:42:07;18.00;99.90
2024;DHT22;1016;48.770;9.154;2023-08-08T00:44:33;17.80;99.90
2024;DHT22;1016;48.770;9.154;2023-08-08T00:46:59;17.80;99.90
2024;DHT22;1016;48.770;9.154;2023-08-08T00:49:24;17.90;99.90
2024;DHT22;1016;48.770;9.154;2023-08-08T00:51:50;18.00;99.90
2024;DHT22;1016;48.770;9.154;2023-08-08T00:54:15;17.80;99.90
2024;DHT22;1016;48.770;9.154;2023-08-08T00:56:41;17.90;99.90
2024;DHT22;1016;48.770;9.154;2023-08-08T00:59:08;17.80;99.90
2024;DHT22;1016;48.770;9.154;2023-08-08T01:01:37;17.80;99.90
2024;DHT22;1016;48.770;9.154;2023-08-08T01:04:03;17.80;99.90
2024;DHT22;1016;48.770;9.154;2023-08-08T01:09:25;17.80;99.90
2024;DHT22;1016;48.770;9.154;2023-08-08T01:11:54;17.80;99.90
2024;DHT22;1016;48.770;9.154;2023-08-08T01:14:21;18.00;99.90
2024;DHT22;1016;48.770;9.154;2023-08-08T01:16:47;17.70;99.90
2024;DHT22;1016;48.770;9.154;2023-08-08T01:19:18;18.00;99.90
2024;DHT22;1016;48.770;9.154;2023-08-08T01:21:48;17.80;99.90
2024;DHT22;1016;48.770;9.154;2023-08-08T01:24:19;17.80;99.90
2024;DHT22;1016;48.770;9.154;2023-08-08T01:26:46;17.80;99.90
2024;DHT22;1016;48.770;9.154;2023-08-08T01:29:12;17.80;99.90
2024;DHT22;1016;48.770;9.154;2023-08-08T01:31:37;17.80;99.90
2024;DHT22;1016;48.770;9.154;2023-08-08T01:34:03;18.00;99.90
2024;DHT22;1016;48.770;9.154;2023-08-08T01:36:32;17.90;99.90
2024;DHT22;1016;48.770;9.154;2023-08-08T01:39:00;17.80;99.90
2024;DHT22;1016;48.770;9.154;2023-08-08T01:41:32;17.80;99.90
2024;DHT22;1016;48.770;9.154;2023-08-08T01:44:00;17.80;99.90
2024;DHT22;1016;48.770;9.154;2023-08-08T01:46:26;17.70;99.90
2024;DHT22;1016;48.770;9.154;2023-08-08T01:48:52;17.80;99.90
2024;DHT22;1016;48.770;9.154;2023-08-08T01:51:17;17.90;99.90
2024;DHT22;1016;48.770;9.154;2023-08-08T01:53:43;17.80;99.90
2024;DHT22;1016;48.770;9.154;2023-08-08T01:56:09;17.90;99.90
2024;DHT22;1016;48.770;9.154;2023-08-08T01:58:34;17.90;99.90
2024;DHT22;1016;48.770;9.154;2023-08-08T02:01:00;17.80;99.90
2024;DHT22;1016;48.770;9.154;2023-08-08T02:03:26;17.80;99.90
2024;DHT22;1016;48.770;9.154;2023-08-08T02:05:53;18.00;99.90
2024;DHT22;1016;48.770;9.154;2023-08-08T02:08:19;17.80;99.90
2024;DHT22;1016;48.770;9.154;2023-08-08T02:10:46;17.80;99.90
2024;DHT22;1016;48.770;9.154;2023-08-08T02:13:11;17.80;99.90
2024;DHT22;1016;48.770;9.154;2023-08-08T02:15:36;17.80;99.90
2024;DHT22;1016;48.770;9.154;2023-08-08T02:18:02;17.80;99.90
2024;DHT22;1016;48.770;9.154;2023-08-08T02:20:29;17.80;99.90
2024;DHT22;1016;48.770;9.154;2023-08-08T02:22:55;17.80;99.90
2024;DHT22;1016;48.770;9.154;2023-08-08T02:25:20;17.80;99.90
2024;DHT22;1016;48.770;9.154;2023-08-08T02:27:46;17.80;99.90
2024;DHT22;1016;48.770;9.154;2023-08-08T02:30:12;17.70;99.90
2024;DHT22;1016;48.770;9.154;2023-08-08T02:32:38;17.70;99.90
2024;DHT22;1016;48.770;9.154;2023-08-08T02:35:03;17.70;99.90
2024;DHT22;1016;48.770;9.154;2023-08-08T02:37:29;17.70;99.90
2024;DHT22;1016;48.770;9.154;2023-08-08T02:39:54;17.70;99.90
2024;DHT22;1016;48.770;9.154;2023-08-08T02:42:20;17.80;99.90
2024;DHT22;1016;48.770;9.154;2023-08-08T02:44:45;17.60;99.90
2024;DHT22;1016;48.770;9.154;2023-08-08T02:47:11;17.70;99.90
2024;DHT22;1016;48.770;9.154;2023-08-08T02:49:37;17.70;99.90
2024;DHT22;1016;48.770;9.154;2023-08-08T02:52:02;17.70;99.90
2024;DHT22;1016;48.770;9.154;2023-08-08T02:54:28;17.70;99.90
2024;DHT22;1016;48.770;9.154;2023-08-08T02:56:55;17.60;99.90
2024;DHT22;1016;48.770;9.154;2023-08-08T02:59:21;17.60;99.90
2024;DHT22;1016;48.770;9.154;2023-08-08T03:01:46;17.60;99.90
2024;DHT22;1016;48.770;9.154;2023-08-08T03:04:13;17.60;99.90
2024;DHT22;1016;48.770;9.154;2023-08-08T03:06:38;17.60;99.90
2024;DHT22;1016;48.770;9.154;2023-08-08T03:09:04;17.60;99.90
2024;DHT22;1016;48.770;9.154;2023-08-08T03:11:30;17.60;99.90
2024;DHT22;1016;48.770;9.154;2023-08-08T03:13:56;17.60;99.90
2024;DHT22;1016;48.770;9.154;2023-08-08T03:16:21;17.60;99.90
2024;DHT22;1016;48.770;9.154;2023-08-08T03:18:47;17.60;99.90
2024;DHT22;1016;48.770;9.154;2023-08-08T03:21:12;17.50;99.90
2024;DHT22;1016;48.770;9.154;2023-08-08T03:23:38;17.50;99.90
2024;DHT22;1016;48.770;9.154;2023-08-08T03:26:03;17.50;99.90
2024;DHT22;1016;48.770;9.154;2023-08-08T03:28:29;17.50;99.90
2024;DHT22;1016;48.770;9.154;2023-08-08T03:30:55;17.50;99.90
2024;DHT22;1016;48.770;9.154;2023-08-08T03:33:20;17.50;99.90
2024;DHT22;1016;48.770;9.154;2023-08-08T03:35:46;17.50;99.90
2024;DHT22;1016;48.770;9.154;2023-08-08T03:38:11;17.50;99.90
2024;DHT22;1016;48.770;9.154;2023-08-08T03:40:37;17.50;99.90
2024;DHT22;1016;48.770;9.154;2023-08-08T03:43:02;17.60;99.90
2024;DHT22;1016;48.770;9.154;2023-08-08T03:45:28;17.50;99.90
2024;DHT22;1016;48.770;9.154;2023-08-08T03:47:54;17.60;99.90
2024;DHT22;1016;48.770;9.154;2023-08-08T03:50:20;17.60;99.90
2024;DHT22;1016;48.770;9.154;2023-08-08T03:52:45;17.50;99.90
2024;DHT22;1016;48.770;9.154;2023-08-08T03:55:12;17.40;99.90
2024;DHT22;1016;48.770;9.154;2023-08-08T03:57:38;17.40;99.90
2024;DHT22;1016;48.770;9.154;2023-08-08T04:00:05;17.60;99.90
2024;DHT22;1016;48.770;9.154;2023-08-08T04:02:33;17.40;99.90
2024;DHT22;1016;48.770;9.154;2023-08-08T04:04:59;17.40;99.90
2024;DHT22;1016;48.770;9.154;2023-08-08T04:07:24;17.50;99.90
2024;DHT22;1016;48.770;9.154;2023-08-08T04:09:50;17.50;99.90
2024;DHT22;1016;48.770;9.154;2023-08-08T04:12:15;17.50;99.90
2024;DHT22;1016;48.770;9.154;2023-08-08T04:14:41;17.70;99.90
2024;DHT22;1016;48.770;9.154;2023-08-08T04:17:06;17.60;99.90
2024;DHT22;1016;48.770;9.154;2023-08-08T04:19:32;17.60;99.90
2024;DHT22;1016;48.770;9.154;2023-08-08T04:21:58;17.50;99.90
2024;DHT22;1016;48.770;9.154;2023-08-08T04:24:23;17.50;99.90
2024;DHT22;1016;48.770;9.154;2023-08-08T04:26:49;17.60;99.90
2024;DHT22;1016;48.770;9.154;2023-08-08T04:29:14;17.50;99.90
2024;DHT22;1016;48.770;9.154;2023-08-08T04:31:40;17.50;99.90
2024;DHT22;1016;48.770;9.154;2023-08-08T04:34:06;17.50;99.90
2024;DHT22;1016;48.770;9.154;2023-08-08T04:36:32;17.50;99.90
2024;DHT22;1016;48.770;9.154;2023-08-08T04:38:58;17.50;99.90
2024;DHT22;1016;48.770;9.154;2023-08-08T04:41:24;17.50;99.90
2024;DHT22;1016;48.770;9.154;2023-08-08T04:43:51;17.60;99.90
2024;DHT22;1016;48.770;9.154;2023-08-08T04:46:16;17.50;99.90
2024;DHT22;1016;48.770;9.154;2023-08-08T04:48:42;17.50;99.90
2024;DHT22;1016;48.770;9.154;2023-08-08T04:51:08;17.60;99.90
2024;DHT22;1016;48.770;9.154;2023-08-08T04:53:34;17.50;99.90
2024;DHT22;1016;48.770;9.154;2023-08-08T04:55:59;17.50;99.90
2024;DHT22;1016;48.770;9.154;2023-08-08T04:58:25;17.50;99.90
2024;DHT22;1016;48.770;9.154;2023-08-08T05:00:51;17.50;99.90
2024;DHT22;1016;48.770;9.154;2023-08-08T05:03:17;17.50;99.90
2024;DHT22;1016;48.770;9.154;2023-08-08T05:05:44;17.50;99.90
2024;DHT22;1016;48.770;9.154;2023-08-08T05:08:13;17.50;99.90
2024;DHT22;1016;48.770;9.154;2023-08-08T05:10:39;17.50;99.90
2024;DHT22;1016;48.770;9.154;2023-08-08T05:13:04;17.50;99.90
2024;DHT22;1016;48.770;9.154;2023-08-08T05:15:30;17.50;99.90
2024;DHT22;1016;48.770;9.154;2023-08-08T05:17:56;17.50;99.90
2024;DHT22;1016;48.770;9.154;2023-08-08T05:20:22;17.50;99.90
2024;DHT22;1016;48.770;9.154;2023-08-08T05:22:48;17.40;99.90
2024;DHT22;1016;48.770;9.154;2023-08-08T05:25:13;17.60;99.90
2024;DHT22;1016;48.770;9.154;2023-08-08T05:27:39;17.50;99.90
2024;DHT22;1016;48.770;9.154;2023-08-08T05:30:07;17.40;99.90
2024;DHT22;1016;48.770;9.154;2023-08-08T05:32:33;17.40;99.90
2024;DHT22;1016;48.770;9.154;2023-08-08T05:34:59;17.30;99.90
2024;DHT22;1016;48.770;9.154;2023-08-08T05:37:26;17.40;99.90
2024;DHT22;1016;48.770;9.154;2023-08-08T05:39:52;17.40;99.90
2024;DHT22;1016;48.770;9.154;2023-08-08T05:42:18;17.40;99.90
2024;DHT22;1016;48.770;9.154;2023-08-08T05:44:43;17.40;99.90
2024;DHT22;1016;48.770;9.154;2023-08-08T05:47:09;17.40;99.90
2024;DHT22;1016;48.770;9.154;2023-08-08T05:49:35;17.50;99.90
2024;DHT22;1016;48.770;9.154;2023-08-08T05:52:01;17.60;99.90
2024;DHT22;1016;48.770;9.154;2023-08-08T05:54:26;17.60;99.90
2024;DHT22;1016;48.770;9.154;2023-08-08T05:56:53;17.40;99.90
2024;DHT22;1016;48.770;9.154;2023-08-08T05:59:19;17.50;99.90
2024;DHT22;1016;48.770;9.154;2023-08-08T06:01:45;17.60;99.90
2024;DHT22;1016;48.770;9.154;2023-08-08T06:04:11;17.50;99.90
2024;DHT22;1016;48.770;9.154;2023-08-08T06:06:37;17.80;99.90
2024;DHT22;1016;48.770;9.154;2023-08-08T06:09:03;17.60;99.90
2024;DHT22;1016;48.770;9.154;2023-08-08T06:11:28;17.60;99.90
2024;DHT22;1016;48.770;9.154;2023-08-08T06:13:54;17.60;99.90
2024;DHT22;1016;48.770;9.154;2023-08-08T06:16:20;17.70;99.90
2024;DHT22;1016;48.770;9.154;2023-08-08T06:18:47;17.70;99.90
2024;DHT22;1016;48.770;9.154;2023-08-08T06:21:13;17.80;99.90
2024;DHT22;1016;48.770;9.154;2023-08-08T06:23:39;17.80;99.90
2024;DHT22;1016;48.770;9.154;2023-08-08T06:26:06;17.80;99.90
2024;DHT22;1016;48.770;9.154;2023-08-08T06:28:32;17.80;99.90
2024;DHT22;1016;48.770;9.154;2023-08-08T06:30:58;18.00;99.90
2024;DHT22;1016;48.770;9.154;2023-08-08T06:33:25;17.90;99.90
2024;DHT22;1016;48.770;9.154;2023-08-08T06:35:51;17.90;99.90
2024;DHT22;1016;48.770;9.154;2023-08-08T06:38:17;18.00;99.90
2024;DHT22;1016;48.770;9.154;2023-08-08T06:40:43;18.00;99.90
2024;DHT22;1016;48.770;9.154;2023-08-08T06:43:08;18.00;99.90
2024;DHT22;1016;48.770;9.154;2023-08-08T06:45:34;18.00;99.90
2024;DHT22;1016;48.770;9.154;2023-08-08T06:48:00;18.10;99.90
2024;DHT22;1016;48.770;9.154;2023-08-08T06:50:26;18.10;99.90
2024;DHT22;1016;48.770;9.154;2023-08-08T06:52:51;18.10;99.90
2024;DHT22;1016;48.770;9.154;2023-08-08T06:55:17;18.10;99.90
2024;DHT22;1016;48.770;9.154;2023-08-08T06:57:43;18.20;99.90
2024;DHT22;1016;48.770;9.154;2023-08-08T07:00:09;18.40;99.90
2024;DHT22;1016;48.770;9.154;2023-08-08T07:02:39;18.10;99.90
2024;DHT22;1016;48.770;9.154;2023-08-08T07:05:05;18.50;99.90
2024;DHT22;1016;48.770;9.154;2023-08-08T07:07:32;18.20;99.90
2024;DHT22;1016;48.770;9.154;2023-08-08T07:09:59;18.30;99.90
2024;DHT22;1016;48.770;9.154;2023-08-08T07:12:25;18.40;99.90
2024;DHT22;1016;48.770;9.154;2023-08-08T07:14:50;18.40;99.90
2024;DHT22;1016;48.770;9.154;2023-08-08T07:17:16;18.60;99.90
2024;DHT22;1016;48.770;9.154;2023-08-08T07:19:41;18.50;99.90
2024;DHT22;1016;48.770;9.154;2023-08-08T07:22:11;18.50;99.90
2024;DHT22;1016;48.770;9.154;2023-08-08T07:24:36;18.60;99.90
2024;DHT22;1016;48.770;9.154;2023-08-08T07:27:04;18.60;99.90
2024;DHT22;1016;48.770;9.154;2023-08-08T07:29:30;18.70;99.90
2024;DHT22;1016;48.770;9.154;2023-08-08T07:31:57;18.80;99.90
2024;DHT22;1016;48.770;9.154;2023-08-08T07:34:28;18.80;99.90
2024;DHT22;1016;48.770;9.154;2023-08-08T07:36:53;18.80;99.90
2024;DHT22;1016;48.770;9.154;2023-08-08T07:39:19;18.80;99.90
2024;DHT22;1016;48.770;9.154;2023-08-08T07:41:45;18.80;99.90
2024;DHT22;1016;48.770;9.154;2023-08-08T07:44:22;19.00;99.90
2024;DHT22;1016;48.770;9.154;2023-08-08T07:46:48;19.00;99.90
2024;DHT22;1016;48.770;9.154;2023-08-08T07:49:14;19.10;99.90
2024;DHT22;1016;48.770;9.154;2023-08-08T07:51:43;19.10;99.90
2024;DHT22;1016;48.770;9.154;2023-08-08T07:54:09;19.00;99.90
2024;DHT22;1016;48.770;9.154;2023-08-08T07:56:36;19.20;99.90
2024;DHT22;1016;48.770;9.154;2023-08-08T07:59:02;19.20;99.90
2024;DHT22;1016;48.770;9.154;2023-08-08T08:01:29;19.30;99.90
2024;DHT22;1016;48.770;9.154;2023-08-08T08:03:57;19.30;99.90
2024;DHT22;1016;48.770;9.154;2023-08-08T08:06:23;19.20;99.90
2024;DHT22;1016;48.770;9.154;2023-08-08T08:09:01;19.30;99.90
2024;DHT22;1016;48.770;9.154;2023-08-08T08:11:26;19.20;99.90
2024;DHT22;1016;48.770;9.154;2023-08-08T08:13:52;19.20;99.90
2024;DHT22;1016;48.770;9.154;2023-08-08T08:16:23;19.30;99.90
2024;DHT22;1016;48.770;9.154;2023-08-08T08:18:50;19.30;99.90
2024;DHT22;1016;48.770;9.154;2023-08-08T08:21:18;19.50;99.90
2024;DHT22;1016;48.770;9.154;2023-08-08T08:23:50;19.40;99.90
2024;DHT22;1016;48.770;9.154;2023-08-08T08:26:22;19.40;99.90
2024;DHT22;1016;48.770;9.154;2023-08-08T08:28:57;19.50;99.90
2024;DHT22;1016;48.770;9.154;2023-08-08T08:31:25;19.40;99.90
2024;DHT22;1016;48.770;9.154;2023-08-08T08:33:54;19.60;99.90
2024;DHT22;1016;48.770;9.154;2023-08-08T08:36:20;19.50;99.90
2024;DHT22;1016;48.770;9.154;2023-08-08T08:38:47;19.50;99.90
2024;DHT22;1016;48.770;9.154;2023-08-08T08:41:17;19.40;99.90
2024;DHT22;1016;48.770;9.154;2023-08-08T08:43:43;19.60;99.90
2024;DHT22;1016;48.770;9.154;2023-08-08T08:46:11;19.60;99.90
2024;DHT22;1016;48.770;9.154;2023-08-08T08:48:38;19.50;99.90
2024;DHT22;1016;48.770;9.154;2023-08-08T08:51:04;19.40;99.90
2024;DHT22;1016;48.770;9.154;2023-08-08T08:53:30;19.70;99.90
2024;DHT22;1016;48.770;9.154;2023-08-08T08:56:01;19.60;99.90
2024;DHT22;1016;48.770;9.154;2023-08-08T08:58:32;19.70;99.90
2024;DHT22;1016;48.770;9.154;2023-08-08T09:01:02;19.70;99.90
2024;DHT22;1016;48.770;9.154;2023-08-08T09:03:33;19.90;99.90
2024;DHT22;1016;48.770;9.154;2023-08-08T09:06:03;19.80;99.90
2024;DHT22;1016;48.770;9.154;2023-08-08T09:08:44;19.90;99.90
2024;DHT22;1016;48.770;9.154;2023-08-08T09:11:23;19.60;99.90
2024;DHT22;1016;48.770;9.154;2023-08-08T09:13:48;19.60;99.90
2024;DHT22;1016;48.770;9.154;2023-08-08T09:16:15;19.90;99.90
2024;DHT22;1016;48.770;9.154;2023-08-08T09:18:44;19.80;99.90
2024;DHT22;1016;48.770;9.154;2023-08-08T09:21:10;19.80;99.90
2024;DHT22;1016;48.770;9.154;2023-08-08T09:23:47;20.00;99.90
2024;DHT22;1016;48.770;9.154;2023-08-08T09:26:36;19.80;99.90
2024;DHT22;1016;48.770;9.154;2023-08-08T09:29:04;20.00;99.90
2024;DHT22;1016;48.770;9.154;2023-08-08T09:31:34;19.90;99.90
2024;DHT22;1016;48.770;9.154;2023-08-08T09:34:03;19.90;99.90
2024;DHT22;1016;48.770;9.154;2023-08-08T09:36:30;19.90;99.90
2024;DHT22;1016;48.770;9.154;2023-08-08T09:39:04;20.00;99.90
2024;DHT22;1016;48.770;9.154;2023-08-08T09:41:38;20.00;99.90
2024;DHT22;1016;48.770;9.154;2023-08-08T09:44:04;20.00;99.90
2024;DHT22;1016;48.770;9.154;2023-08-08T09:46:36;20.00;99.90
2024;DHT22;1016;48.770;9.154;2023-08-08T09:49:19;20.00;99.90
2024;DHT22;1016;48.770;9.154;2023-08-08T09:51:48;20.00;99.90
2024;DHT22;1016;48.770;9.154;2023-08-08T09:54:29;20.10;99.90
2024;DHT22;1016;48.770;9.154;2023-08-08T10:00:29;20.10;99.90
2024;DHT22;1016;48.770;9.154;2023-08-08T10:03:23;20.10;99.90
2024;DHT22;1016;48.770;9.154;2023-08-08T10:05:55;20.10;99.90
2024;DHT22;1016;48.770;9.154;2023-08-08T10:08:22;20.30;99.90
2024;DHT22;1016;48.770;9.154;2023-08-08T10:13:27;20.20;99.90
2024;DHT22;1016;48.770;9.154;2023-08-08T10:15:54;20.20;99.90
2024;DHT22;1016;48.770;9.154;2023-08-08T10:18:24;20.20;99.90
2024;DHT22;1016;48.770;9.154;2023-08-08T10:20:50;20.20;99.90
2024;DHT22;1016;48.770;9.154;2023-08-08T10:23:17;20.30;99.90
2024;DHT22;1016;48.770;9.154;2023-08-08T10:25:48;20.30;99.90
2024;DHT22;1016;48.770;9.154;2023-08-08T10:28:17;20.30;99.90
2024;DHT22;1016;48.770;9.154;2023-08-08T10:33:20;20.40;99.90
2024;DHT22;1016;48.770;9.154;2023-08-08T10:38:21;20.40;99.90
2024;DHT22;1016;48.770;9.154;2023-08-08T10:40:47;20.50;99.90
2024;DHT22;1016;48.770;9.154;2023-08-08T10:43:13;20.50;99.90
2024;DHT22;1016;48.770;9.154;2023-08-08T10:45:41;20.50;99.90
2024;DHT22;1016;48.770;9.154;2023-08-08T10:48:10;20.50;99.90
2024;DHT22;1016;48.770;9.154;2023-08-08T10:50:40;20.50;99.60
2024;DHT22;1016;48.770;9.154;2023-08-08T10:53:08;20.60;99.00
2024;DHT22;1016;48.770;9.154;2023-08-08T10:55:37;20.60;98.60
2024;DHT22;1016;48.770;9.154;2023-08-08T10:58:08;20.60;98.50
2024;DHT22;1016;48.770;9.154;2023-08-08T11:00:36;20.60;98.60
2024;DHT22;1016;48.770;9.154;2023-08-08T11:03:03;20.70;98.10
2024;DHT22;1016;48.770;9.154;2023-08-08T11:05:35;20.70;97.60
2024;DHT22;1016;48.770;9.154;2023-08-08T11:08:03;20.70;97.80
2024;DHT22;1016;48.770;9.154;2023-08-08T11:10:29;20.70;97.60
2024;DHT22;1016;48.770;9.154;2023-08-08T11:13:03;20.70;97.80
2024;DHT22;1016;48.770;9.154;2023-08-08T11:15:31;20.70;97.40
2024;DHT22;1016;48.770;9.154;2023-08-08T11:17:57;20.70;97.00
2024;DHT22;1016;48.770;9.154;2023-08-08T11:20:23;20.80;96.80
2024;DHT22;1016;48.770;9.154;2023-08-08T11:22:54;20.80;97.20
2024;DHT22;1016;48.770;9.154;2023-08-08T11:25:21;20.80;97.50
2024;DHT22;1016;48.770;9.154;2023-08-08T11:27:51;20.80;97.70
2024;DHT22;1016;48.770;9.154;2023-08-08T11:30:17;20.90;97.90
2024;DHT22;1016;48.770;9.154;2023-08-08T11:32:43;20.90;98.00
2024;DHT22;1016;48.770;9.154;2023-08-08T11:35:09;20.90;97.30
2024;DHT22;1016;48.770;9.154;2023-08-08T11:37:35;20.90;96.70
2024;DHT22;1016;48.770;9.154;2023-08-08T11:40:01;20.90;96.80
2024;DHT22;1016;48.770;9.154;2023-08-08T11:42:31;21.00;96.80
2024;DHT22;1016;48.770;9.154;2023-08-08T11:44:57;21.00;96.00
2024;DHT22;1016;48.770;9.154;2023-08-08T11:47:26;21.00;96.00
2024;DHT22;1016;48.770;9.154;2023-08-08T11:49:51;21.10;95.90
2024;DHT22;1016;48.770;9.154;2023-08-08T11:52:19;21.00;96.20
2024;DHT22;1016;48.770;9.154;2023-08-08T11:54:50;21.00;96.40
2024;DHT22;1016;48.770;9.154;2023-08-08T11:57:16;21.10;96.60
2024;DHT22;1016;48.770;9.154;2023-08-08T11:59:41;21.10;96.60
2024;DHT22;1016;48.770;9.154;2023-08-08T12:02:07;21.10;96.70
2024;DHT22;1016;48.770;9.154;2023-08-08T12:04:35;21.10;96.70
2024;DHT22;1016;48.770;9.154;2023-08-08T12:07:01;21.10;95.50
2024;DHT22;1016;48.770;9.154;2023-08-08T12:09:32;21.20;95.30
2024;DHT22;1016;48.770;9.154;2023-08-08T12:12:01;21.20;95.10
2024;DHT22;1016;48.770;9.154;2023-08-08T12:14:27;21.20;94.60
2024;DHT22;1016;48.770;9.154;2023-08-08T12:16:54;21.20;94.80
2024;DHT22;1016;48.770;9.154;2023-08-08T12:19:23;21.20;95.00
2024;DHT22;1016;48.770;9.154;2023-08-08T12:21:48;21.30;94.40
2024;DHT22;1016;48.770;9.154;2023-08-08T12:24:14;21.30;94.20
2024;DHT22;1016;48.770;9.154;2023-08-08T12:26:40;21.40;94.40
2024;DHT22;1016;48.770;9.154;2023-08-08T12:29:05;21.30;94.20
2024;DHT22;1016;48.770;9.154;2023-08-08T12:31:31;21.30;94.40
2024;DHT22;1016;48.770;9.154;2023-08-08T12:33:56;21.40;94.10
2024;DHT22;1016;48.770;9.154;2023-08-08T12:36:22;21.40;94.30
2024;DHT22;1016;48.770;9.154;2023-08-08T12:38:47;21.40;94.40
2024;DHT22;1016;48.770;9.154;2023-08-08T12:41:13;21.50;94.30
2024;DHT22;1016;48.770;9.154;2023-08-08T12:43:38;21.50;94.50
2024;DHT22;1016;48.770;9.154;2023-08-08T12:46:05;21.50;94.90
2024;DHT22;1016;48.770;9.154;2023-08-08T12:48:30;21.60;95.10
2024;DHT22;1016;48.770;9.154;2023-08-08T12:50:56;21.60;95.00
2024;DHT22;1016;48.770;9.154;2023-08-08T12:53:22;21.60;95.10
2024;DHT22;1016;48.770;9.154;2023-08-08T12:55:47;21.70;94.60
2024;DHT22;1016;48.770;9.154;2023-08-08T12:58:13;21.70;94.30
2024;DHT22;1016;48.770;9.154;2023-08-08T13:00:38;21.70;94.30
2024;DHT22;1016;48.770;9.154;2023-08-08T13:03:04;21.70;94.60
2024;DHT22;1016;48.770;9.154;2023-08-08T13:05:30;21.80;94.60
2024;DHT22;1016;48.770;9.154;2023-08-08T13:07:55;21.80;94.50
2024;DHT22;1016;48.770;9.154;2023-08-08T13:10:21;21.70;94.50
2024;DHT22;1016;48.770;9.154;2023-08-08T13:12:47;21.80;94.50
2024;DHT22;1016;48.770;9.154;2023-08-08T13:15:13;21.80;94.60
2024;DHT22;1016;48.770;9.154;2023-08-08T13:17:38;21.70;94.50
2024;DHT22;1016;48.770;9.154;2023-08-08T13:20:04;21.70;94.70
2024;DHT22;1016;48.770;9.154;2023-08-08T13:22:30;21.70;94.80
2024;DHT22;1016;48.770;9.154;2023-08-08T13:24:56;21.70;95.20
2024;DHT22;1016;48.770;9.154;2023-08-08T13:27:21;21.70;95.50
2024;DHT22;1016;48.770;9.154;2023-08-08T13:29:47;21.70;95.50
2024;DHT22;1016;48.770;9.154;2023-08-08T13:32:12;21.70;95.80
2024;DHT22;1016;48.770;9.154;2023-08-08T13:34:38;21.70;95.90
2024;DHT22;1016;48.770;9.154;2023-08-08T13:37:03;21.80;96.00
2024;DHT22;1016;48.770;9.154;2023-08-08T13:39:30;22.30;96.50
2024;DHT22;1016;48.770;9.154;2023-08-08T13:41:55;23.10;96.40
2024;DHT22;1016;48.770;9.154;2023-08-08T13:44:21;23.00;95.40
2024;DHT22;1016;48.770;9.154;2023-08-08T13:46:46;22.80;95.20
2024;DHT22;1016;48.770;9.154;2023-08-08T13:49:12;22.70;95.20
2024;DHT22;1016;48.770;9.154;2023-08-08T13:51:38;23.00;95.50
2024;DHT22;1016;48.770;9.154;2023-08-08T13:54:03;23.00;95.00
2024;DHT22;1016;48.770;9.154;2023-08-08T13:56:29;22.90;95.10
2024;DHT22;1016;48.770;9.154;2023-08-08T13:58:54;22.80;94.90
2024;DHT22;1016;48.770;9.154;2023-08-08T14:01:20;22.70;95.00
2024;DHT22;1016;48.770;9.154;2023-08-08T14:03:46;22.60;94.80
2024;DHT22;1016;48.770;9.154;2023-08-08T14:06:12;22.70;94.80
2024;DHT22;1016;48.770;9.154;2023-08-08T14:08:38;22.70;94.80
2024;DHT22;1016;48.770;9.154;2023-08-08T14:11:03;22.60;94.80
2024;DHT22;1016;48.770;9.154;2023-08-08T14:13:29;22.60;94.20
2024;DHT22;1016;48.770;9.154;2023-08-08T14:15:54;22.50;94.10
2024;DHT22;1016;48.770;9.154;2023-08-08T14:18:20;22.50;94.00
2024;DHT22;1016;48.770;9.154;2023-08-08T14:20:45;22.50;94.20
2024;DHT22;1016;48.770;9.154;2023-08-08T14:23:11;22.50;94.40
2024;DHT22;1016;48.770;9.154;2023-08-08T14:25:36;22.40;94.30
2024;DHT22;1016;48.770;9.154;2023-08-08T14:28:02;22.40;94.20
2024;DHT22;1016;48.770;9.154;2023-08-08T14:30:29;22.30;94.20
2024;DHT22;1016;48.770;9.154;2023-08-08T14:32:55;22.30;94.00
2024;DHT22;1016;48.770;9.154;2023-08-08T14:35:21;22.30;94.30
2024;DHT22;1016;48.770;9.154;2023-08-08T14:37:46;22.10;94.40
2024;DHT22;1016;48.770;9.154;2023-08-08T14:40:12;22.10;94.50
2024;DHT22;1016;48.770;9.154;2023-08-08T14:42:37;22.00;94.70
2024;DHT22;1016;48.770;9.154;2023-08-08T14:45:03;22.00;94.90
2024;DHT22;1016;48.770;9.154;2023-08-08T14:47:29;22.00;95.10
2024;DHT22;1016;48.770;9.154;2023-08-08T14:49:54;21.90;95.30
2024;DHT22;1016;48.770;9.154;2023-08-08T14:52:20;21.90;95.50
2024;DHT22;1016;48.770;9.154;2023-08-08T14:54:46;21.90;95.70
2024;DHT22;1016;48.770;9.154;2023-08-08T14:57:11;21.90;95.90
2024;DHT22;1016;48.770;9.154;2023-08-08T14:59:36;21.90;96.00
2024;DHT22;1016;48.770;9.154;2023-08-08T15:02:02;21.90;96.00
2024;DHT22;1016;48.770;9.154;2023-08-08T15:04:27;21.90;95.90
2024;DHT22;1016;48.770;9.154;2023-08-08T15:06:53;21.80;96.00
2024;DHT22;1016;48.770;9.154;2023-08-08T15:09:18;21.70;96.20
2024;DHT22;1016;48.770;9.154;2023-08-08T15:11:44;21.70;96.30
2024;DHT22;1016;48.770;9.154;2023-08-08T15:14:09;21.70;96.40
2024;DHT22;1016;48.770;9.154;2023-08-08T15:16:35;21.60;96.50
2024;DHT22;1016;48.770;9.154;2023-08-08T15:19:02;21.70;96.60
2024;DHT22;1016;48.770;9.154;2023-08-08T15:21:27;21.60;96.90
2024;DHT22;1016;48.770;9.154;2023-08-08T15:23:53;21.60;96.60
2024;DHT22;1016;48.770;9.154;2023-08-08T15:26:18;21.70;96.90
2024;DHT22;1016;48.770;9.154;2023-08-08T15:28:48;21.70;97.00
2024;DHT22;1016;48.770;9.154;2023-08-08T15:31:14;21.70;97.00
2024;DHT22;1016;48.770;9.154;2023-08-08T15:33:39;21.70;97.00
2024;DHT22;1016;48.770;9.154;2023-08-08T15:36:05;21.70;97.20
2024;DHT22;1016;48.770;9.154;2023-08-08T15:38:31;21.80;97.20
2024;DHT22;1016;48.770;9.154;2023-08-08T15:40:57;21.70;97.30
2024;DHT22;1016;48.770;9.154;2023-08-08T15:43:23;21.70;97.00
2024;DHT22;1016;48.770;9.154;2023-08-08T15:45:51;21.70;97.00
2024;DHT22;1016;48.770;9.154;2023-08-08T15:48:16;21.70;96.90
2024;DHT22;1016;48.770;9.154;2023-08-08T15:50:42;21.70;97.00
2024;DHT22;1016;48.770;9.154;2023-08-08T15:53:08;21.60;97.00
2024;DHT22;1016;48.770;9.154;2023-08-08T15:55:35;21.60;97.10
2024;DHT22;1016;48.770;9.154;2023-08-08T15:58:01;21.60;97.10
2024;DHT22;1016;48.770;9.154;2023-08-08T16:00:27;21.70;97.40
2024;DHT22;1016;48.770;9.154;2023-08-08T16:02:53;21.50;97.50
2024;DHT22;1016;48.770;9.154;2023-08-08T16:05:18;21.50;97.60
2024;DHT22;1016;48.770;9.154;2023-08-08T16:07:44;21.50;97.50
2024;DHT22;1016;48.770;9.154;2023-08-08T16:10:10;21.50;97.70
2024;DHT22;1016;48.770;9.154;2023-08-08T16:12:36;21.50;97.90